sensor_id;sensor_type;location;lat;lon;timestamp;P1;durP1;ratioP1;P2;durP2;ratioP2
8526;SDS011;4301;48.362;8.478;2023-04-07T00:02:16;7.47;;;6.73;;
8526;SDS011;4301;48.362;8.478;2023-04-07T00:04:43;9.37;;;7.50;;
8526;SDS011;4301;48.362;8.478;2023-04-07T00:07:10;8.90;;;7.30;;
8526;SDS011;4301;48.362;8.478;2023-04-07T00:09:38;9.30;;;6.93;;
8526;SDS011;4301;48.362;8.478;2023-04-07T00:12:06;8.07;;;6.77;;
8526;SDS011;4301;48.362;8.478;2023-04-07T00:14:33;9.60;;;6.53;;
8526;SDS011;4301;48.362;8.478;2023-04-07T00:16:59;8.47;;;6.73;;
8526;SDS011;4301;48.362;8.478;2023-04-07T00:19:26;9.83;;;7.40;;
8526;SDS011;4301;48.362;8.478;2023-04-07T00:21:53;7.23;;;6.53;;
8526;SDS011;4301;48.362;8.478;2023-04-07T00:24:20;9.70;;;7.67;;
8526;SDS011;4301;48.362;8.478;2023-04-07T00:26:49;10.70;;;7.77;;
8526;SDS011;4301;48.362;8.478;2023-04-07T00:29:16;10.53;;;8.53;;
8526;SDS011;4301;48.362;8.478;2023-04-07T00:31:43;10.13;;;7.83;;
8526;SDS011;4301;48.362;8.478;2023-04-07T00:34:09;11.43;;;8.30;;
8526;SDS011;4301;48.362;8.478;2023-04-07T00:36:36;10.27;;;7.97;;
8526;SDS011;4301;48.362;8.478;2023-04-07T00:39:03;10.97;;;8.17;;
8526;SDS011;4301;48.362;8.478;2023-04-07T00:41:32;9.63;;;8.00;;
8526;SDS011;4301;48.362;8.478;2023-04-07T00:44:01;10.20;;;7.90;;
8526;SDS011;4301;48.362;8.478;2023-04-07T00:46:28;11.13;;;7.93;;
8526;SDS011;4301;48.362;8.478;2023-04-07T00:48:55;10.47;;;7.90;;
8526;SDS011;4301;48.362;8.478;2023-04-07T00:51:22;8.73;;;7.60;;
8526;SDS011;4301;48.362;8.478;2023-04-07T00:53:48;9.63;;;8.00;;
8526;SDS011;4301;48.362;8.478;2023-04-07T00:56:15;9.67;;;7.97;;
8526;SDS011;4301;48.362;8.478;2023-04-07T00:58:42;9.70;;;8.63;;
8526;SDS011;4301;48.362;8.478;2023-04-07T01:01:12;9.17;;;8.13;;
8526;SDS011;4301;48.362;8.478;2023-04-07T01:03:44;11.73;;;8.20;;
8526;SDS011;4301;48.362;8.478;2023-04-07T01:06:14;12.33;;;9.37;;
8526;SDS011;4301;48.362;8.478;2023-04-07T01:08:47;12.03;;;9.60;;
8526;SDS011;4301;48.362;8.478;2023-04-07T01:11:21;10.03;;;8.30;;
8526;SDS011;4301;48.362;8.478;2023-04-07T01:13:50;10.23;;;8.30;;
8526;SDS011;4301;48.362;8.478;2023-04-07T01:16:22;11.60;;;8.70;;
8526;SDS011;4301;48.362;8.478;2023-04-07T01:18:53;9.83;;;8.53;;
8526;SDS011;4301;48.362;8.478;2023-04-07T01:21:23;8.80;;;7.87;;
8526;SDS011;4301;48.362;8.478;2023-04-07T01:24:00;10.73;;;7.47;;
8526;SDS011;4301;48.362;8.478;2023-04-07T01:26:46;9.37;;;7.63;;
8526;SDS011;4301;48.362;8.478;2023-04-07T01:29:26;10.00;;;7.77;;
8526;SDS011;4301;48.362;8.478;2023-04-07T01:31:59;8.60;;;7.70;;
8526;SDS011;4301;48.362;8.478;2023-04-07T01:34:28;9.23;;;7.93;;
8526;SDS011;4301;48.362;8.478;2023-04-07T01:36:57;9.27;;;8.00;;
8526;SDS011;4301;48.362;8.478;2023-04-07T01:39:26;12.63;;;9.60;;
8526;SDS011;4301;48.362;8.478;2023-04-07T01:41:54;10.50;;;8.43;;
8526;SDS011;4301;48.362;8.478;2023-04-07T01:44:22;9.33;;;8.10;;
8526;SDS011;4301;48.362;8.478;2023-04-07T01:46:52;9.97;;;8.47;;
8526;SDS011;4301;48.362;8.478;2023-04-07T01:49:20;11.60;;;8.20;;
8526;SDS011;4301;48.362;8.478;2023-04-07T01:51:48;10.27;;;8.33;;
8526;SDS011;4301;48.362;8.478;2023-04-07T01:54:16;10.50;;;8.13;;
8526;SDS011;4301;48.362;8.478;2023-04-07T01:56:43;9.20;;;7.70;;
8526;SDS011;4301;48.362;8.478;2023-04-07T01:59:10;9.03;;;8.13;;
8526;SDS011;4301;48.362;8.478;2023-04-07T02:01:37;9.37;;;8.17;;
8526;SDS011;4301;48.362;8.478;2023-04-07T02:04:07;9.40;;;8.07;;
8526;SDS011;4301;48.362;8.478;2023-04-07T02:06:40;13.13;;;8.17;;
8526;SDS011;4301;48.362;8.478;2023-04-07T02:09:12;9.27;;;8.23;;
8526;SDS011;4301;48.362;8.478;2023-04-07T02:11:41;10.23;;;7.20;;
8526;SDS011;4301;48.362;8.478;2023-04-07T02:14:10;8.60;;;7.40;;
8526;SDS011;4301;48.362;8.478;2023-04-07T02:16:38;11.33;;;7.93;;
8526;SDS011;4301;48.362;8.478;2023-04-07T02:19:08;8.50;;;7.60;;
8526;SDS011;4301;48.362;8.478;2023-04-07T02:21:35;10.40;;;7.63;;
8526;SDS011;4301;48.362;8.478;2023-04-07T02:24:05;8.03;;;6.70;;
8526;SDS011;4301;48.362;8.478;2023-04-07T02:26:32;8.97;;;7.67;;
8526;SDS011;4301;48.362;8.478;2023-04-07T02:29:00;8.13;;;6.63;;
8526;SDS011;4301;48.362;8.478;2023-04-07T02:31:27;8.67;;;7.40;;
8526;SDS011;4301;48.362;8.478;2023-04-07T02:33:54;8.67;;;7.57;;
8526;SDS011;4301;48.362;8.478;2023-04-07T02:36:22;10.33;;;7.80;;
8526;SDS011;4301;48.362;8.478;2023-04-07T02:38:50;8.97;;;7.33;;
8526;SDS011;4301;48.362;8.478;2023-04-07T02:41:17;8.57;;;6.93;;
8526;SDS011;4301;48.362;8.478;2023-04-07T02:43:45;10.67;;;7.43;;
8526;SDS011;4301;48.362;8.478;2023-04-07T02:46:12;8.77;;;7.57;;
8526;SDS011;4301;48.362;8.478;2023-04-07T02:48:39;8.33;;;7.37;;
8526;SDS011;4301;48.362;8.478;2023-04-07T02:51:06;10.03;;;8.00;;
8526;SDS011;4301;48.362;8.478;2023-04-07T02:53:34;9.57;;;8.20;;
8526;SDS011;4301;48.362;8.478;2023-04-07T02:56:01;9.60;;;8.60;;
8526;SDS011;4301;48.362;8.478;2023-04-07T02:58:28;9.13;;;8.00;;
8526;SDS011;4301;48.362;8.478;2023-04-07T03:00:55;12.33;;;9.10;;
8526;SDS011;4301;48.362;8.478;2023-04-07T03:03:22;11.13;;;7.57;;
8526;SDS011;4301;48.362;8.478;2023-04-07T03:05:49;8.80;;;7.90;;
8526;SDS011;4301;48.362;8.478;2023-04-07T03:08:16;10.70;;;8.60;;
8526;SDS011;4301;48.362;8.478;2023-04-07T03:10:44;10.90;;;8.67;;
8526;SDS011;4301;48.362;8.478;2023-04-07T03:13:11;12.00;;;9.10;;
8526;SDS011;4301;48.362;8.478;2023-04-07T03:15:40;9.80;;;8.80;;
8526;SDS011;4301;48.362;8.478;2023-04-07T03:18:08;10.70;;;9.10;;
8526;SDS011;4301;48.362;8.478;2023-04-07T03:20:35;10.07;;;8.43;;
8526;SDS011;4301;48.362;8.478;2023-04-07T03:23:02;9.10;;;7.87;;
8526;SDS011;4301;48.362;8.478;2023-04-07T03:25:29;10.13;;;7.23;;
8526;SDS011;4301;48.362;8.478;2023-04-07T03:27:58;8.47;;;7.53;;
8526;SDS011;4301;48.362;8.478;2023-04-07T03:30:25;12.60;;;8.23;;
8526;SDS011;4301;48.362;8.478;2023-04-07T03:32:52;9.70;;;8.20;;
8526;SDS011;4301;48.362;8.478;2023-04-07T03:35:19;9.47;;;7.63;;
8526;SDS011;4301;48.362;8.478;2023-04-07T03:37:46;9.93;;;8.37;;
8526;SDS011;4301;48.362;8.478;2023-04-07T03:40:13;8.57;;;6.97;;
8526;SDS011;4301;48.362;8.478;2023-04-07T03:42:40;8.90;;;7.07;;
8526;SDS011;4301;48.362;8.478;2023-04-07T03:45:08;9.70;;;7.83;;
8526;SDS011;4301;48.362;8.478;2023-04-07T03:47:36;8.43;;;7.33;;
8526;SDS011;4301;48.362;8.478;2023-04-07T03:50:03;8.07;;;7.27;;
8526;SDS011;4301;48.362;8.478;2023-04-07T03:52:30;9.77;;;7.40;;
8526;SDS011;4301;48.362;8.478;2023-04-07T03:54:57;8.37;;;7.57;;
8526;SDS011;4301;48.362;8.478;2023-04-07T03:57:24;10.43;;;8.17;;
8526;SDS011;4301;48.362;8.478;2023-04-07T03:59:51;9.73;;;8.10;;
8526;SDS011;4301;48.362;8.478;2023-04-07T04:02:20;8.07;;;7.27;;
8526;SDS011;4301;48.362;8.478;2023-04-07T04:04:47;10.43;;;7.40;;
8526;SDS011;4301;48.362;8.478;2023-04-07T04:07:14;8.43;;;7.00;;
8526;SDS011;4301;48.362;8.478;2023-04-07T04:09:41;8.90;;;7.63;;
8526;SDS011;4301;48.362;8.478;2023-04-07T04:12:08;9.40;;;7.40;;
8526;SDS011;4301;48.362;8.478;2023-04-07T04:14:35;8.13;;;6.60;;
8526;SDS011;4301;48.362;8.478;2023-04-07T04:17:02;7.83;;;7.03;;
8526;SDS011;4301;48.362;8.478;2023-04-07T04:19:31;8.27;;;7.03;;
8526;SDS011;4301;48.362;8.478;2023-04-07T04:21:58;7.33;;;6.60;;
8526;SDS011;4301;48.362;8.478;2023-04-07T04:24:25;9.13;;;6.87;;
8526;SDS011;4301;48.362;8.478;2023-04-07T04:26:52;7.77;;;6.17;;
8526;SDS011;4301;48.362;8.478;2023-04-07T04:29:19;7.93;;;6.20;;
8526;SDS011;4301;48.362;8.478;2023-04-07T04:31:46;7.77;;;6.40;;
8526;SDS011;4301;48.362;8.478;2023-04-07T04:34:12;8.70;;;6.60;;
8526;SDS011;4301;48.362;8.478;2023-04-07T04:36:41;7.13;;;6.43;;
8526;SDS011;4301;48.362;8.478;2023-04-07T04:39:08;7.50;;;6.50;;
8526;SDS011;4301;48.362;8.478;2023-04-07T04:41:35;7.37;;;6.53;;
8526;SDS011;4301;48.362;8.478;2023-04-07T04:44:02;8.00;;;7.00;;
8526;SDS011;4301;48.362;8.478;2023-04-07T04:46:29;12.90;;;7.50;;
8526;SDS011;4301;48.362;8.478;2023-04-07T04:48:56;8.90;;;7.60;;
8526;SDS011;4301;48.362;8.478;2023-04-07T04:51:23;8.10;;;7.30;;
8526;SDS011;4301;48.362;8.478;2023-04-07T04:53:51;8.37;;;7.23;;
8526;SDS011;4301;48.362;8.478;2023-04-07T04:56:18;10.43;;;8.50;;
8526;SDS011;4301;48.362;8.478;2023-04-07T04:58:45;10.77;;;8.00;;
8526;SDS011;4301;48.362;8.478;2023-04-07T05:01:12;10.03;;;7.60;;
8526;SDS011;4301;48.362;8.478;2023-04-07T05:03:39;11.50;;;8.30;;
8526;SDS011;4301;48.362;8.478;2023-04-07T05:06:06;11.73;;;8.80;;
8526;SDS011;4301;48.362;8.478;2023-04-07T05:08:33;10.83;;;8.60;;
8526;SDS011;4301;48.362;8.478;2023-04-07T05:11:02;9.40;;;8.27;;
8526;SDS011;4301;48.362;8.478;2023-04-07T05:13:29;8.03;;;7.23;;
8526;SDS011;4301;48.362;8.478;2023-04-07T05:15:56;10.43;;;8.40;;
8526;SDS011;4301;48.362;8.478;2023-04-07T05:18:22;10.33;;;8.50;;
8526;SDS011;4301;48.362;8.478;2023-04-07T05:20:49;9.77;;;8.17;;
8526;SDS011;4301;48.362;8.478;2023-04-07T05:23:16;12.03;;;9.63;;
8526;SDS011;4301;48.362;8.478;2023-04-07T05:25:43;29.93;;;20.23;;
8526;SDS011;4301;48.362;8.478;2023-04-07T05:28:11;14.07;;;10.80;;
8526;SDS011;4301;48.362;8.478;2023-04-07T05:30:38;11.97;;;9.40;;
8526;SDS011;4301;48.362;8.478;2023-04-07T05:33:05;8.43;;;6.37;;
8526;SDS011;4301;48.362;8.478;2023-04-07T05:35:32;7.07;;;6.37;;
8526;SDS011;4301;48.362;8.478;2023-04-07T05:37:59;9.03;;;6.70;;
8526;SDS011;4301;48.362;8.478;2023-04-07T05:40:26;13.97;;;9.80;;
8526;SDS011;4301;48.362;8.478;2023-04-07T05:42:54;13.67;;;9.23;;
8526;SDS011;4301;48.362;8.478;2023-04-07T05:45:22;10.77;;;9.20;;
8526;SDS011;4301;48.362;8.478;2023-04-07T05:47:49;11.13;;;8.60;;
8526;SDS011;4301;48.362;8.478;2023-04-07T05:50:16;12.10;;;8.70;;
8526;SDS011;4301;48.362;8.478;2023-04-07T05:52:43;10.93;;;8.50;;
8526;SDS011;4301;48.362;8.478;2023-04-07T05:55:10;11.87;;;8.80;;
8526;SDS011;4301;48.362;8.478;2023-04-07T05:57:37;10.87;;;8.97;;
8526;SDS011;4301;48.362;8.478;2023-04-07T06:00:04;12.23;;;9.30;;
8526;SDS011;4301;48.362;8.478;2023-04-07T06:02:34;10.33;;;8.27;;
8526;SDS011;4301;48.362;8.478;2023-04-07T06:05:01;10.53;;;7.93;;
8526;SDS011;4301;48.362;8.478;2023-04-07T06:07:28;9.43;;;7.97;;
8526;SDS011;4301;48.362;8.478;2023-04-07T06:09:55;10.03;;;8.10;;
8526;SDS011;4301;48.362;8.478;2023-04-07T06:12:22;8.70;;;6.57;;
8526;SDS011;4301;48.362;8.478;2023-04-07T06:14:51;7.43;;;6.67;;
8526;SDS011;4301;48.362;8.478;2023-04-07T06:17:19;7.40;;;6.60;;
8526;SDS011;4301;48.362;8.478;2023-04-07T06:19:47;7.70;;;6.63;;
8526;SDS011;4301;48.362;8.478;2023-04-07T06:22:14;9.00;;;6.67;;
8526;SDS011;4301;48.362;8.478;2023-04-07T06:24:41;8.03;;;7.23;;
8526;SDS011;4301;48.362;8.478;2023-04-07T06:27:08;9.73;;;7.03;;
8526;SDS011;4301;48.362;8.478;2023-04-07T06:29:35;7.50;;;6.53;;
8526;SDS011;4301;48.362;8.478;2023-04-07T06:32:02;7.77;;;6.50;;
8526;SDS011;4301;48.362;8.478;2023-04-07T06:34:29;7.20;;;6.33;;
8526;SDS011;4301;48.362;8.478;2023-04-07T06:36:57;6.87;;;6.10;;
8526;SDS011;4301;48.362;8.478;2023-04-07T06:39:24;7.03;;;6.33;;
8526;SDS011;4301;48.362;8.478;2023-04-07T06:41:52;8.33;;;7.23;;
8526;SDS011;4301;48.362;8.478;2023-04-07T06:44:21;9.57;;;7.03;;
8526;SDS011;4301;48.362;8.478;2023-04-07T06:46:47;7.67;;;6.87;;
8526;SDS011;4301;48.362;8.478;2023-04-07T06:49:17;8.03;;;7.23;;
8526;SDS011;4301;48.362;8.478;2023-04-07T06:51:44;8.07;;;7.03;;
8526;SDS011;4301;48.362;8.478;2023-04-07T06:54:12;7.93;;;7.13;;
8526;SDS011;4301;48.362;8.478;2023-04-07T06:56:40;9.00;;;7.50;;
8526;SDS011;4301;48.362;8.478;2023-04-07T06:59:07;8.80;;;7.90;;
8526;SDS011;4301;48.362;8.478;2023-04-07T07:01:34;9.30;;;8.03;;
8526;SDS011;4301;48.362;8.478;2023-04-07T07:04:02;8.93;;;7.70;;
8526;SDS011;4301;48.362;8.478;2023-04-07T07:06:29;9.87;;;7.37;;
8526;SDS011;4301;48.362;8.478;2023-04-07T07:08:57;9.57;;;7.30;;
8526;SDS011;4301;48.362;8.478;2023-04-07T07:11:26;8.60;;;7.10;;
8526;SDS011;4301;48.362;8.478;2023-04-07T07:13:53;8.63;;;7.43;;
8526;SDS011;4301;48.362;8.478;2023-04-07T07:16:20;8.10;;;6.63;;
8526;SDS011;4301;48.362;8.478;2023-04-07T07:18:48;8.37;;;7.43;;
8526;SDS011;4301;48.362;8.478;2023-04-07T07:21:15;8.80;;;7.30;;
8526;SDS011;4301;48.362;8.478;2023-04-07T07:23:43;14.07;;;7.10;;
8526;SDS011;4301;48.362;8.478;2023-04-07T07:26:09;6.87;;;6.17;;
8526;SDS011;4301;48.362;8.478;2023-04-07T07:28:38;8.87;;;6.60;;
8526;SDS011;4301;48.362;8.478;2023-04-07T07:31:08;11.53;;;6.43;;
8526;SDS011;4301;48.362;8.478;2023-04-07T07:33:37;7.07;;;6.37;;
8526;SDS011;4301;48.362;8.478;2023-04-07T07:36:05;7.57;;;6.00;;
8526;SDS011;4301;48.362;8.478;2023-04-07T07:38:32;7.20;;;6.30;;
8526;SDS011;4301;48.362;8.478;2023-04-07T07:40:59;8.73;;;6.33;;
8526;SDS011;4301;48.362;8.478;2023-04-07T07:43:26;6.30;;;5.70;;
8526;SDS011;4301;48.362;8.478;2023-04-07T07:45:54;7.53;;;5.63;;
8526;SDS011;4301;48.362;8.478;2023-04-07T07:48:21;8.40;;;5.50;;
8526;SDS011;4301;48.362;8.478;2023-04-07T07:50:48;5.53;;;5.03;;
8526;SDS011;4301;48.362;8.478;2023-04-07T07:53:16;6.17;;;5.40;;
8526;SDS011;4301;48.362;8.478;2023-04-07T07:55:44;5.23;;;4.63;;
8526;SDS011;4301;48.362;8.478;2023-04-07T07:58:11;7.27;;;4.73;;
8526;SDS011;4301;48.362;8.478;2023-04-07T08:00:37;5.37;;;4.50;;
8526;SDS011;4301;48.362;8.478;2023-04-07T08:03:06;5.57;;;5.00;;
8526;SDS011;4301;48.362;8.478;2023-04-07T08:05:34;5.00;;;4.60;;
8526;SDS011;4301;48.362;8.478;2023-04-07T08:08:01;6.40;;;4.33;;
8526;SDS011;4301;48.362;8.478;2023-04-07T08:10:28;5.33;;;4.07;;
8526;SDS011;4301;48.362;8.478;2023-04-07T08:12:55;4.40;;;4.00;;
8526;SDS011;4301;48.362;8.478;2023-04-07T08:15:22;4.97;;;4.47;;
8526;SDS011;4301;48.362;8.478;2023-04-07T08:17:49;4.57;;;4.00;;
8526;SDS011;4301;48.362;8.478;2023-04-07T08:20:17;5.23;;;4.83;;
8526;SDS011;4301;48.362;8.478;2023-04-07T08:22:44;4.40;;;4.00;;
8526;SDS011;4301;48.362;8.478;2023-04-07T08:25:11;6.03;;;4.67;;
8526;SDS011;4301;48.362;8.478;2023-04-07T08:27:38;4.33;;;3.97;;
8526;SDS011;4301;48.362;8.478;2023-04-07T08:30:06;3.83;;;3.53;;
8526;SDS011;4301;48.362;8.478;2023-04-07T08:32:33;6.90;;;3.43;;
8526;SDS011;4301;48.362;8.478;2023-04-07T08:35:01;3.77;;;3.43;;
8526;SDS011;4301;48.362;8.478;2023-04-07T08:37:30;3.60;;;3.30;;
8526;SDS011;4301;48.362;8.478;2023-04-07T08:39:58;3.53;;;3.23;;
8526;SDS011;4301;48.362;8.478;2023-04-07T08:42:26;3.97;;;3.13;;
8526;SDS011;4301;48.362;8.478;2023-04-07T08:44:55;3.63;;;2.80;;
8526;SDS011;4301;48.362;8.478;2023-04-07T08:47:24;3.47;;;3.17;;
8526;SDS011;4301;48.362;8.478;2023-04-07T08:49:53;6.63;;;3.00;;
8526;SDS011;4301;48.362;8.478;2023-04-07T08:52:22;4.53;;;3.07;;
8526;SDS011;4301;48.362;8.478;2023-04-07T08:54:59;3.23;;;2.90;;
8526;SDS011;4301;48.362;8.478;2023-04-07T08:57:27;4.30;;;3.17;;
8526;SDS011;4301;48.362;8.478;2023-04-07T08:59:55;3.00;;;2.67;;
8526;SDS011;4301;48.362;8.478;2023-04-07T09:02:26;2.60;;;2.40;;
8526;SDS011;4301;48.362;8.478;2023-04-07T09:04:54;5.47;;;3.20;;
8526;SDS011;4301;48.362;8.478;2023-04-07T09:07:21;3.53;;;3.00;;
8526;SDS011;4301;48.362;8.478;2023-04-07T09:09:48;4.23;;;3.17;;
8526;SDS011;4301;48.362;8.478;2023-04-07T09:12:16;4.17;;;2.73;;
8526;SDS011;4301;48.362;8.478;2023-04-07T09:14:43;2.97;;;2.70;;
8526;SDS011;4301;48.362;8.478;2023-04-07T09:17:10;4.70;;;3.20;;
8526;SDS011;4301;48.362;8.478;2023-04-07T09:19:37;3.17;;;2.87;;
8526;SDS011;4301;48.362;8.478;2023-04-07T09:22:04;3.57;;;3.20;;
8526;SDS011;4301;48.362;8.478;2023-04-07T09:24:32;4.37;;;2.90;;
8526;SDS011;4301;48.362;8.478;2023-04-07T09:27:09;3.57;;;2.90;;
8526;SDS011;4301;48.362;8.478;2023-04-07T09:29:39;3.20;;;2.90;;
8526;SDS011;4301;48.362;8.478;2023-04-07T09:32:06;3.27;;;2.97;;
8526;SDS011;4301;48.362;8.478;2023-04-07T09:34:34;3.50;;;3.20;;
8526;SDS011;4301;48.362;8.478;2023-04-07T09:37:02;4.73;;;3.37;;
8526;SDS011;4301;48.362;8.478;2023-04-07T09:39:31;3.80;;;3.00;;
8526;SDS011;4301;48.362;8.478;2023-04-07T09:41:58;4.50;;;3.53;;
8526;SDS011;4301;48.362;8.478;2023-04-07T09:44:38;3.37;;;3.07;;
8526;SDS011;4301;48.362;8.478;2023-04-07T09:47:07;2.87;;;2.67;;
8526;SDS011;4301;48.362;8.478;2023-04-07T09:49:34;3.87;;;3.00;;
8526;SDS011;4301;48.362;8.478;2023-04-07T09:52:14;2.97;;;2.77;;
8526;SDS011;4301;48.362;8.478;2023-04-07T09:54:42;3.83;;;3.10;;
8526;SDS011;4301;48.362;8.478;2023-04-07T09:57:10;4.80;;;3.43;;
8526;SDS011;4301;48.362;8.478;2023-04-07T09:59:39;4.07;;;3.47;;
8526;SDS011;4301;48.362;8.478;2023-04-07T10:02:08;3.10;;;2.80;;
8526;SDS011;4301;48.362;8.478;2023-04-07T10:04:36;3.43;;;3.13;;
8526;SDS011;4301;48.362;8.478;2023-04-07T10:07:04;4.07;;;2.77;;
8526;SDS011;4301;48.362;8.478;2023-04-07T10:09:31;4.60;;;2.77;;
8526;SDS011;4301;48.362;8.478;2023-04-07T10:11:58;3.07;;;2.80;;
8526;SDS011;4301;48.362;8.478;2023-04-07T10:14:26;3.17;;;2.77;;
8526;SDS011;4301;48.362;8.478;2023-04-07T10:16:57;2.80;;;2.60;;
8526;SDS011;4301;48.362;8.478;2023-04-07T10:19:25;6.50;;;2.93;;
8526;SDS011;4301;48.362;8.478;2023-04-07T10:21:56;3.83;;;2.83;;
8526;SDS011;4301;48.362;8.478;2023-04-07T10:24:37;3.30;;;3.00;;
8526;SDS011;4301;48.362;8.478;2023-04-07T10:27:17;3.53;;;2.97;;
8526;SDS011;4301;48.362;8.478;2023-04-07T10:29:48;3.40;;;3.20;;
8526;SDS011;4301;48.362;8.478;2023-04-07T10:32:18;4.33;;;3.43;;
8526;SDS011;4301;48.362;8.478;2023-04-07T10:34:55;3.60;;;3.00;;
8526;SDS011;4301;48.362;8.478;2023-04-07T10:37:23;4.17;;;3.80;;
8526;SDS011;4301;48.362;8.478;2023-04-07T10:42:57;4.40;;;4.00;;
8526;SDS011;4301;48.362;8.478;2023-04-07T10:48:25;3.07;;;2.80;;
8526;SDS011;4301;48.362;8.478;2023-04-07T10:57:06;4.33;;;3.27;;
8526;SDS011;4301;48.362;8.478;2023-04-07T10:59:38;3.10;;;2.90;;
8526;SDS011;4301;48.362;8.478;2023-04-07T11:02:29;3.27;;;2.80;;
8526;SDS011;4301;48.362;8.478;2023-04-07T11:05:01;4.73;;;3.17;;
8526;SDS011;4301;48.362;8.478;2023-04-07T11:07:45;3.27;;;2.97;;
8526;SDS011;4301;48.362;8.478;2023-04-07T11:10:15;5.67;;;4.40;;
8526;SDS011;4301;48.362;8.478;2023-04-07T11:12:43;5.93;;;5.37;;
8526;SDS011;4301;48.362;8.478;2023-04-07T11:15:22;6.87;;;4.73;;
8526;SDS011;4301;48.362;8.478;2023-04-07T11:20:40;5.43;;;3.50;;
8526;SDS011;4301;48.362;8.478;2023-04-07T11:23:08;3.77;;;3.47;;
8526;SDS011;4301;48.362;8.478;2023-04-07T11:25:36;4.30;;;3.90;;
8526;SDS011;4301;48.362;8.478;2023-04-07T11:28:04;3.60;;;3.40;;
8526;SDS011;4301;48.362;8.478;2023-04-07T11:30:31;4.93;;;4.13;;
8526;SDS011;4301;48.362;8.478;2023-04-07T11:32:58;3.03;;;2.83;;
8526;SDS011;4301;48.362;8.478;2023-04-07T11:35:25;4.13;;;3.73;;
8526;SDS011;4301;48.362;8.478;2023-04-07T11:37:57;5.20;;;3.77;;
8526;SDS011;4301;48.362;8.478;2023-04-07T11:40:32;4.37;;;3.10;;
8526;SDS011;4301;48.362;8.478;2023-04-07T11:43:01;6.33;;;5.73;;
8526;SDS011;4301;48.362;8.478;2023-04-07T11:45:28;4.60;;;3.43;;
8526;SDS011;4301;48.362;8.478;2023-04-07T11:47:55;4.00;;;3.60;;
8526;SDS011;4301;48.362;8.478;2023-04-07T11:50:38;6.00;;;3.50;;
8526;SDS011;4301;48.362;8.478;2023-04-07T11:53:07;5.77;;;5.20;;
8526;SDS011;4301;48.362;8.478;2023-04-07T11:55:34;4.07;;;3.67;;
8526;SDS011;4301;48.362;8.478;2023-04-07T11:58:05;4.63;;;3.73;;
8526;SDS011;4301;48.362;8.478;2023-04-07T12:00:34;4.37;;;3.90;;
8526;SDS011;4301;48.362;8.478;2023-04-07T12:03:10;4.97;;;3.63;;
8526;SDS011;4301;48.362;8.478;2023-04-07T12:05:42;5.23;;;3.67;;
8526;SDS011;4301;48.362;8.478;2023-04-07T12:08:10;6.10;;;4.00;;
8526;SDS011;4301;48.362;8.478;2023-04-07T12:10:38;4.40;;;4.00;;
8526;SDS011;4301;48.362;8.478;2023-04-07T12:13:05;4.80;;;3.63;;
8526;SDS011;4301;48.362;8.478;2023-04-07T12:15:33;5.60;;;3.83;;
8526;SDS011;4301;48.362;8.478;2023-04-07T12:18:01;5.20;;;4.30;;
8526;SDS011;4301;48.362;8.478;2023-04-07T12:20:28;5.77;;;3.47;;
8526;SDS011;4301;48.362;8.478;2023-04-07T12:22:55;3.67;;;3.30;;
8526;SDS011;4301;48.362;8.478;2023-04-07T12:25:25;4.40;;;4.00;;
8526;SDS011;4301;48.362;8.478;2023-04-07T12:27:52;4.20;;;3.80;;
8526;SDS011;4301;48.362;8.478;2023-04-07T12:30:20;4.10;;;3.80;;
8526;SDS011;4301;48.362;8.478;2023-04-07T12:32:47;4.30;;;3.80;;
8526;SDS011;4301;48.362;8.478;2023-04-07T12:35:14;3.70;;;3.40;;
8526;SDS011;4301;48.362;8.478;2023-04-07T12:37:40;5.77;;;4.63;;
8526;SDS011;4301;48.362;8.478;2023-04-07T12:40:07;4.57;;;3.10;;
8526;SDS011;4301;48.362;8.478;2023-04-07T12:42:36;4.63;;;3.60;;
8526;SDS011;4301;48.362;8.478;2023-04-07T12:45:03;5.13;;;3.50;;
8526;SDS011;4301;48.362;8.478;2023-04-07T12:47:31;3.00;;;2.60;;
8526;SDS011;4301;48.362;8.478;2023-04-07T12:49:58;6.77;;;3.90;;
8526;SDS011;4301;48.362;8.478;2023-04-07T12:52:25;5.37;;;3.40;;
8526;SDS011;4301;48.362;8.478;2023-04-07T12:54:52;3.90;;;3.10;;
8526;SDS011;4301;48.362;8.478;2023-04-07T12:57:19;3.47;;;3.17;;
8526;SDS011;4301;48.362;8.478;2023-04-07T12:59:47;4.63;;;3.23;;
8526;SDS011;4301;48.362;8.478;2023-04-07T13:02:14;3.20;;;2.90;;
8526;SDS011;4301;48.362;8.478;2023-04-07T13:04:43;4.00;;;3.13;;
8526;SDS011;4301;48.362;8.478;2023-04-07T13:07:11;3.97;;;2.83;;
8526;SDS011;4301;48.362;8.478;2023-04-07T13:09:38;5.83;;;3.37;;
8526;SDS011;4301;48.362;8.478;2023-04-07T13:12:07;6.10;;;5.50;;
8526;SDS011;4301;48.362;8.478;2023-04-07T13:14:35;5.30;;;3.10;;
8526;SDS011;4301;48.362;8.478;2023-04-07T13:17:03;2.90;;;2.70;;
8526;SDS011;4301;48.362;8.478;2023-04-07T13:19:30;5.10;;;3.30;;
8526;SDS011;4301;48.362;8.478;2023-04-07T13:21:57;4.03;;;3.60;;
8526;SDS011;4301;48.362;8.478;2023-04-07T13:24:24;5.07;;;3.60;;
8526;SDS011;4301;48.362;8.478;2023-04-07T13:26:51;3.60;;;3.00;;
8526;SDS011;4301;48.362;8.478;2023-04-07T13:29:18;3.83;;;2.87;;
8526;SDS011;4301;48.362;8.478;2023-04-07T13:31:45;4.07;;;3.23;;
8526;SDS011;4301;48.362;8.478;2023-04-07T13:34:14;3.90;;;3.00;;
8526;SDS011;4301;48.362;8.478;2023-04-07T13:36:41;3.53;;;3.00;;
8526;SDS011;4301;48.362;8.478;2023-04-07T13:39:08;5.23;;;3.07;;
8526;SDS011;4301;48.362;8.478;2023-04-07T13:41:36;3.50;;;3.20;;
8526;SDS011;4301;48.362;8.478;2023-04-07T13:44:03;4.10;;;3.70;;
8526;SDS011;4301;48.362;8.478;2023-04-07T13:46:30;3.43;;;3.13;;
8526;SDS011;4301;48.362;8.478;2023-04-07T13:48:57;4.93;;;3.30;;
8526;SDS011;4301;48.362;8.478;2023-04-07T13:51:25;5.87;;;3.40;;
8526;SDS011;4301;48.362;8.478;2023-04-07T13:53:53;4.10;;;3.47;;
8526;SDS011;4301;48.362;8.478;2023-04-07T13:56:20;3.73;;;3.40;;
8526;SDS011;4301;48.362;8.478;2023-04-07T13:58:47;5.43;;;3.37;;
8526;SDS011;4301;48.362;8.478;2023-04-07T14:01:14;4.23;;;3.60;;
8526;SDS011;4301;48.362;8.478;2023-04-07T14:03:41;3.87;;;2.77;;
8526;SDS011;4301;48.362;8.478;2023-04-07T14:06:09;2.70;;;2.50;;
8526;SDS011;4301;48.362;8.478;2023-04-07T14:08:37;3.03;;;2.77;;
8526;SDS011;4301;48.362;8.478;2023-04-07T14:11:04;2.60;;;2.40;;
8526;SDS011;4301;48.362;8.478;2023-04-07T14:13:31;3.93;;;2.80;;
8526;SDS011;4301;48.362;8.478;2023-04-07T14:15:58;3.57;;;2.70;;
8526;SDS011;4301;48.362;8.478;2023-04-07T14:18:25;3.53;;;3.00;;
8526;SDS011;4301;48.362;8.478;2023-04-07T14:20:52;42.10;;;28.53;;
8526;SDS011;4301;48.362;8.478;2023-04-07T14:23:19;10.50;;;9.40;;
8526;SDS011;4301;48.362;8.478;2023-04-07T14:25:48;4.93;;;4.10;;
8526;SDS011;4301;48.362;8.478;2023-04-07T14:28:15;3.53;;;3.20;;
8526;SDS011;4301;48.362;8.478;2023-04-07T14:30:41;5.00;;;3.10;;
8526;SDS011;4301;48.362;8.478;2023-04-07T14:33:08;3.47;;;2.60;;
8526;SDS011;4301;48.362;8.478;2023-04-07T14:35:35;2.50;;;2.40;;
8526;SDS011;4301;48.362;8.478;2023-04-07T14:38:02;5.00;;;2.50;;
8526;SDS011;4301;48.362;8.478;2023-04-07T14:40:30;16.97;;;8.20;;
8526;SDS011;4301;48.362;8.478;2023-04-07T14:42:58;13.23;;;8.57;;
8526;SDS011;4301;48.362;8.478;2023-04-07T14:45:25;4.97;;;3.60;;
8526;SDS011;4301;48.362;8.478;2023-04-07T14:47:52;3.87;;;2.57;;
8526;SDS011;4301;48.362;8.478;2023-04-07T14:50:19;3.33;;;2.00;;
8526;SDS011;4301;48.362;8.478;2023-04-07T14:52:47;2.77;;;1.50;;
8526;SDS011;4301;48.362;8.478;2023-04-07T14:55:14;4.00;;;3.37;;
8526;SDS011;4301;48.362;8.478;2023-04-07T14:57:42;3.40;;;1.80;;
8526;SDS011;4301;48.362;8.478;2023-04-07T15:00:11;2.30;;;2.10;;
8526;SDS011;4301;48.362;8.478;2023-04-07T15:02:38;6.80;;;4.97;;
8526;SDS011;4301;48.362;8.478;2023-04-07T15:05:05;3.83;;;3.43;;
8526;SDS011;4301;48.362;8.478;2023-04-07T15:07:33;4.37;;;2.50;;
8526;SDS011;4301;48.362;8.478;2023-04-07T15:10:01;3.10;;;2.80;;
8526;SDS011;4301;48.362;8.478;2023-04-07T15:12:28;2.37;;;2.17;;
8526;SDS011;4301;48.362;8.478;2023-04-07T15:14:55;2.33;;;1.90;;
8526;SDS011;4301;48.362;8.478;2023-04-07T15:17:24;2.53;;;2.30;;
8526;SDS011;4301;48.362;8.478;2023-04-07T15:19:51;3.00;;;2.30;;
8526;SDS011;4301;48.362;8.478;2023-04-07T15:22:18;5.00;;;4.20;;
8526;SDS011;4301;48.362;8.478;2023-04-07T15:24:44;5.23;;;4.73;;
8526;SDS011;4301;48.362;8.478;2023-04-07T15:27:11;2.80;;;2.60;;
8526;SDS011;4301;48.362;8.478;2023-04-07T15:29:38;4.60;;;2.73;;
8526;SDS011;4301;48.362;8.478;2023-04-07T15:32:06;5.47;;;3.40;;
8526;SDS011;4301;48.362;8.478;2023-04-07T15:34:34;9.63;;;6.90;;